createdAt,value
2023-01-29T00:01:45.494Z,7.00
2023-01-29T00:04:32.885Z,4.93
2023-01-29T00:07:20.208Z,4.33
2023-01-29T00:10:09.886Z,6.60
2023-01-29T00:12:57.577Z,3.90
2023-01-29T00:15:44.937Z,6.63
2023-01-29T00:18:32.862Z,5.07
2023-01-29T00:21:22.004Z,4.73
2023-01-29T00:24:09.531Z,4.77
2023-01-29T00:26:58.510Z,4.53
2023-01-29T00:30:06.568Z,4.90
2023-01-29T00:32:54.247Z,5.13
2023-01-29T00:35:42.696Z,5.40
2023-01-29T00:38:30.369Z,8.87
2023-01-29T00:41:35.254Z,8.97
2023-01-29T00:44:41.816Z,5.13
2023-01-29T00:47:33.264Z,5.87
2023-01-29T00:50:20.822Z,8.93
2023-01-29T00:53:08.460Z,6.63
2023-01-29T00:55:55.782Z,8.97
2023-01-29T00:58:43.151Z,8.43
2023-01-29T01:01:49.670Z,7.27
2023-01-29T01:04:37.281Z,8.10
2023-01-29T01:07:24.732Z,7.83
2023-01-29T01:10:22.370Z,7.20
2023-01-29T01:13:10.121Z,7.10
2023-01-29T01:15:57.893Z,8.30
2023-01-29T01:18:47.116Z,6.50
2023-01-29T01:21:34.815Z,7.17
2023-01-29T01:24:23.359Z,7.43
2023-01-29T01:27:10.767Z,7.63
2023-01-29T01:29:57.943Z,7.43
2023-01-29T01:32:45.387Z,6.93
2023-01-29T01:35:34.167Z,9.03
2023-01-29T01:38:21.847Z,7.33
2023-01-29T01:41:09.165Z,7.37
2023-01-29T01:43:57.491Z,9.10
2023-01-29T01:46:44.909Z,13.33
2023-01-29T01:49:32.397Z,7.17
2023-01-29T01:52:21.242Z,9.47
2023-01-29T01:55:09.224Z,6.23
2023-01-29T01:57:59.663Z,9.93
2023-01-29T02:00:47.292Z,9.17
2023-01-29T02:03:53.431Z,7.57
2023-01-29T02:06:59.184Z,8.37
2023-01-29T02:09:51.380Z,6.43
2023-01-29T02:12:39.230Z,8.47
2023-01-29T02:15:26.601Z,9.27
2023-01-29T02:18:17.949Z,9.03
2023-01-29T02:21:16.094Z,8.30
2023-01-29T02:24:20.665Z,8.33
2023-01-29T02:27:12.064Z,9.83
2023-01-29T02:30:05.159Z,9.53
2023-01-29T02:32:58.357Z,11.10
2023-01-29T02:35:49.286Z,8.10
2023-01-29T02:38:39.055Z,8.77
2023-01-29T02:41:29.061Z,8.03
2023-01-29T02:44:23.295Z,9.87
2023-01-29T02:47:16.621Z,11.73
2023-01-29T02:50:06.661Z,8.73
2023-01-29T02:52:59.782Z,8.90
2023-01-29T02:55:48.836Z,8.40
2023-01-29T02:58:40.290Z,11.77
2023-01-29T03:01:30.620Z,12.67
2023-01-29T03:04:21.824Z,9.87
2023-01-29T03:07:22.572Z,7.97
2023-01-29T03:10:14.816Z,8.60
2023-01-29T03:13:05.083Z,10.20
2023-01-29T03:16:01.342Z,8.93
2023-01-29T03:19:09.290Z,9.87
2023-01-29T03:22:00.138Z,13.20
2023-01-29T03:25:08.922Z,11.90
2023-01-29T03:28:17.782Z,10.37
2023-01-29T03:31:26.197Z,8.47
2023-01-29T03:34:24.163Z,11.57
2023-01-29T03:37:18.834Z,11.23
2023-01-29T03:40:07.140Z,10.60
2023-01-29T03:43:01.087Z,13.73
2023-01-29T03:45:55.295Z,13.50
2023-01-29T03:48:48.080Z,7.93
2023-01-29T03:51:38.491Z,9.77
2023-01-29T03:54:31.507Z,9.07
2023-01-29T03:57:26.194Z,8.60
2023-01-29T04:00:18.552Z,8.33
2023-01-29T04:03:23.186Z,11.80
2023-01-29T04:06:13.283Z,8.37
2023-01-29T04:09:20.238Z,8.83
2023-01-29T04:12:10.110Z,12.37
2023-01-29T04:15:01.862Z,7.77
2023-01-29T04:17:52.658Z,10.30
2023-01-29T04:21:07.206Z,9.70
2023-01-29T04:23:55.442Z,12.10
2023-01-29T04:26:50.274Z,9.67
2023-01-29T04:29:45.735Z,10.47
2023-01-29T04:32:39.788Z,14.33
2023-01-29T04:35:32.527Z,11.67
2023-01-29T04:38:30.022Z,11.47
2023-01-29T04:41:22.313Z,10.10
2023-01-29T04:44:12.728Z,16.77
2023-01-29T04:47:07.009Z,13.40
2023-01-29T04:49:58.593Z,13.30
2023-01-29T04:52:49.466Z,9.03
2023-01-29T04:55:41.818Z,12.73
2023-01-29T04:58:34.158Z,10.03
2023-01-29T05:01:22.371Z,11.23
2023-01-29T05:04:13.351Z,13.03
2023-01-29T05:07:03.054Z,14.43
2023-01-29T05:09:51.328Z,13.37
2023-01-29T05:12:40.229Z,12.50
2023-01-29T05:15:30.319Z,13.83
2023-01-29T05:18:17.822Z,12.67
2023-01-29T05:21:08.066Z,12.27
2023-01-29T05:24:08.279Z,12.43
2023-01-29T05:27:13.859Z,12.33
2023-01-29T05:30:01.168Z,12.70
2023-01-29T05:32:48.655Z,11.27
2023-01-29T05:35:36.297Z,13.53
2023-01-29T05:38:25.033Z,18.47
2023-01-29T05:41:12.653Z,13.77
2023-01-29T05:44:00.201Z,14.27
2023-01-29T05:46:47.709Z,12.97
2023-01-29T05:49:35.705Z,11.27
2023-01-29T05:52:23.515Z,13.80
2023-01-29T05:55:12.562Z,13.40
2023-01-29T05:58:00.272Z,14.10
2023-01-29T06:00:47.826Z,16.43
2023-01-29T06:03:35.179Z,15.07
2023-01-29T06:06:22.743Z,13.03
2023-01-29T06:09:11.831Z,12.77
2023-01-29T06:12:00.498Z,11.80
2023-01-29T06:14:48.073Z,16.67
2023-01-29T06:17:35.421Z,16.83
2023-01-29T06:20:22.921Z,17.47
2023-01-29T06:23:19.916Z,12.63
2023-01-29T06:26:08.513Z,16.17
2023-01-29T06:28:57.425Z,13.33
2023-01-29T06:31:45.102Z,16.47
2023-01-29T06:34:32.897Z,14.87
2023-01-29T06:37:20.503Z,19.73
2023-01-29T06:40:08.429Z,15.37
2023-01-29T06:42:56.111Z,19.23
2023-01-29T06:45:49.305Z,15.27
2023-01-29T06:48:37.029Z,17.20
2023-01-29T06:51:24.744Z,15.60
2023-01-29T06:54:12.588Z,15.73
2023-01-29T06:56:59.815Z,18.47
2023-01-29T06:59:47.087Z,17.80
2023-01-29T07:02:36.083Z,14.10
2023-01-29T07:05:23.395Z,15.87
2023-01-29T07:08:10.950Z,19.63
2023-01-29T07:11:01.082Z,18.67
2023-01-29T07:13:48.584Z,17.77
2023-01-29T07:16:36.386Z,19.10
2023-01-29T07:19:25.285Z,17.87
2023-01-29T07:22:12.902Z,17.73
2023-01-29T07:25:00.451Z,16.53
2023-01-29T07:27:48.683Z,19.23
2023-01-29T07:30:36.122Z,17.47
2023-01-29T07:33:23.495Z,18.90
2023-01-29T07:36:12.805Z,19.53
2023-01-29T07:39:00.431Z,20.20
2023-01-29T07:41:47.600Z,17.90
2023-01-29T07:44:38.115Z,18.73
2023-01-29T07:47:25.396Z,18.13
2023-01-29T07:50:13.329Z,17.07
2023-01-29T07:53:02.502Z,21.70
2023-01-29T07:55:50.101Z,22.07
2023-01-29T07:58:37.518Z,19.23
2023-01-29T08:01:24.869Z,20.17
2023-01-29T08:04:12.375Z,21.03
2023-01-29T08:06:59.766Z,16.93
2023-01-29T08:09:48.549Z,18.43
2023-01-29T08:12:36.126Z,19.60
2023-01-29T08:15:23.531Z,23.60
2023-01-29T08:18:11.200Z,19.80
2023-01-29T08:21:01.052Z,18.17
2023-01-29T08:23:48.757Z,19.43
2023-01-29T08:26:37.459Z,21.00
2023-01-29T08:29:24.939Z,19.93
2023-01-29T08:32:12.291Z,20.33
2023-01-29T08:34:59.717Z,20.53
2023-01-29T08:37:53.839Z,19.47
2023-01-29T08:40:41.352Z,19.63
2023-01-29T08:43:30.114Z,18.93
2023-01-29T08:46:17.991Z,19.33
2023-01-29T08:49:05.306Z,20.37
2023-01-29T08:51:53.838Z,19.83
2023-01-29T08:54:41.424Z,17.27
2023-01-29T08:57:28.754Z,19.60
2023-01-29T09:00:18.652Z,20.40
2023-01-29T09:03:07.757Z,19.87
2023-01-29T09:05:55.231Z,22.13
2023-01-29T09:08:42.689Z,18.60
2023-01-29T09:11:30.465Z,27.33
2023-01-29T09:14:17.872Z,22.00
2023-01-29T09:17:06.513Z,20.10
2023-01-29T09:19:54.158Z,20.27
2023-01-29T09:22:41.560Z,18.20
2023-01-29T09:25:29.100Z,18.27
2023-01-29T09:28:17.507Z,17.00
2023-01-29T09:31:05.429Z,20.07
2023-01-29T09:33:54.427Z,20.43
2023-01-29T09:36:42.066Z,18.10
2023-01-29T09:39:29.610Z,19.60
2023-01-29T09:42:20.493Z,18.27
2023-01-29T09:45:13.940Z,16.93
2023-01-29T09:48:04.203Z,19.37
2023-01-29T09:50:55.079Z,17.83
2023-01-29T09:53:45.167Z,19.20
2023-01-29T09:56:32.808Z,19.97
2023-01-29T09:59:23.149Z,18.77
2023-01-29T10:02:12.242Z,19.67
2023-01-29T10:05:05.298Z,20.03
2023-01-29T10:08:04.613Z,20.17
2023-01-29T10:10:53.005Z,16.23
2023-01-29T10:13:44.742Z,16.90
2023-01-29T10:16:37.976Z,17.73
2023-01-29T10:19:35.106Z,16.43
2023-01-29T10:22:38.727Z,16.17
2023-01-29T10:25:27.855Z,15.90
2023-01-29T10:28:18.530Z,17.30
2023-01-29T10:31:07.334Z,13.63
2023-01-29T10:34:02.459Z,16.97
2023-01-29T10:36:51.498Z,16.10
2023-01-29T10:39:38.749Z,14.10
2023-01-29T10:42:30.505Z,13.67
2023-01-29T10:45:21.211Z,13.27
2023-01-29T10:48:25.825Z,12.70
2023-01-29T10:51:21.061Z,12.27
2023-01-29T10:54:18.620Z,11.53
2023-01-29T10:57:11.502Z,13.50
2023-01-29T11:00:07.211Z,11.60
2023-01-29T11:02:55.080Z,12.57
2023-01-29T11:05:45.753Z,11.57
2023-01-29T11:08:36.971Z,10.93
2023-01-29T11:11:28.075Z,9.00
2023-01-29T11:14:18.101Z,9.80
2023-01-29T11:17:06.851Z,11.27
2023-01-29T11:19:56.011Z,12.40
2023-01-29T11:22:55.626Z,11.10
2023-01-29T11:25:53.796Z,9.00
2023-01-29T11:28:42.536Z,9.80
2023-01-29T11:31:37.231Z,11.03
2023-01-29T11:34:27.680Z,9.40
2023-01-29T11:37:17.847Z,8.70
2023-01-29T11:40:30.783Z,11.00
2023-01-29T11:43:30.226Z,12.07
2023-01-29T11:46:17.866Z,9.97
2023-01-29T11:49:14.326Z,9.87
2023-01-29T11:52:10.436Z,10.57
2023-01-29T11:55:00.767Z,9.83
2023-01-29T11:57:50.269Z,11.80
2023-01-29T12:00:38.339Z,9.67
2023-01-29T12:03:32.228Z,8.43
2023-01-29T12:06:21.645Z,10.27
2023-01-29T12:09:15.495Z,10.63
2023-01-29T12:12:18.764Z,11.27
2023-01-29T12:15:07.679Z,8.30
2023-01-29T12:17:59.654Z,11.17
2023-01-29T12:20:49.491Z,9.07
2023-01-29T12:23:43.284Z,8.80
2023-01-29T12:26:34.381Z,7.80
2023-01-29T12:29:25.839Z,9.77
2023-01-29T12:32:16.203Z,8.13
2023-01-29T12:35:05.449Z,8.83
2023-01-29T12:37:56.442Z,7.87
2023-01-29T12:40:45.907Z,14.43
2023-01-29T12:43:37.619Z,10.67
2023-01-29T12:46:28.714Z,8.07
2023-01-29T12:49:19.474Z,6.40
2023-01-29T12:52:11.721Z,10.07
2023-01-29T12:55:02.610Z,8.17
2023-01-29T12:57:54.786Z,8.07
2023-01-29T13:00:45.164Z,10.80
2023-01-29T13:03:35.651Z,9.37
2023-01-29T13:06:24.339Z,9.63
2023-01-29T13:09:15.630Z,9.43
2023-01-29T13:12:04.515Z,10.13
2023-01-29T13:14:54.018Z,11.07
2023-01-29T13:17:44.593Z,12.23
2023-01-29T13:20:33.639Z,8.27
2023-01-29T13:23:23.162Z,11.73
2023-01-29T13:26:12.978Z,9.27
2023-01-29T13:29:02.457Z,9.63
2023-01-29T13:31:50.212Z,12.73
2023-01-29T13:34:45.588Z,9.33
2023-01-29T13:37:34.915Z,7.87
2023-01-29T13:40:24.708Z,10.47
2023-01-29T13:43:19.950Z,8.63
2023-01-29T13:46:10.749Z,11.27
2023-01-29T13:49:04.809Z,7.70
2023-01-29T13:51:53.651Z,7.03
2023-01-29T13:54:41.382Z,9.03
2023-01-29T13:57:37.195Z,10.77
2023-01-29T14:01:01.467Z,9.17
2023-01-29T14:04:04.788Z,8.17
2023-01-29T14:06:54.993Z,9.77
2023-01-29T14:09:57.388Z,10.43
2023-01-29T14:12:46.471Z,9.77
2023-01-29T14:15:34.788Z,10.83
2023-01-29T14:18:22.909Z,9.40
2023-01-29T14:21:23.852Z,11.60
2023-01-29T14:24:17.973Z,10.50
2023-01-29T14:27:06.793Z,9.07
2023-01-29T14:30:01.226Z,8.70
2023-01-29T14:32:49.811Z,12.90
2023-01-29T14:35:50.994Z,12.23
2023-01-29T14:38:38.904Z,12.20
2023-01-29T14:41:30.965Z,12.20
2023-01-29T14:44:36.975Z,13.77
2023-01-29T14:47:45.114Z,15.07
2023-01-29T14:50:51.566Z,14.17
2023-01-29T14:53:47.550Z,14.33
2023-01-29T14:56:37.860Z,12.53
2023-01-29T14:59:26.937Z,13.90
2023-01-29T15:02:18.284Z,14.50
2023-01-29T15:05:08.833Z,12.97
2023-01-29T15:07:57.475Z,14.10
2023-01-29T15:10:45.958Z,13.53
2023-01-29T15:13:37.690Z,15.33
2023-01-29T15:16:27.046Z,10.67
2023-01-29T15:19:18.307Z,11.50
2023-01-29T15:22:13.355Z,12.63
2023-01-29T15:25:05.335Z,15.83
2023-01-29T15:27:53.023Z,12.50
2023-01-29T15:30:43.563Z,36.93
2023-01-29T15:33:30.968Z,14.20
2023-01-29T15:36:20.879Z,11.47
2023-01-29T15:39:15.871Z,10.80
2023-01-29T15:42:12.420Z,17.73
2023-01-29T15:45:00.056Z,13.53
2023-01-29T15:47:49.095Z,13.67
2023-01-29T15:50:38.500Z,12.77
2023-01-29T15:53:28.835Z,16.73
2023-01-29T15:56:17.680Z,14.20
2023-01-29T15:59:09.698Z,12.43
2023-01-29T16:01:57.761Z,14.73
2023-01-29T16:04:46.541Z,12.70
2023-01-29T16:07:34.181Z,13.67
2023-01-29T16:10:22.469Z,12.87
2023-01-29T16:13:13.135Z,13.60
2023-01-29T16:16:01.637Z,16.47
2023-01-29T16:19:00.008Z,14.87
2023-01-29T16:21:54.329Z,18.63
2023-01-29T16:24:41.920Z,17.80
2023-01-29T16:27:30.901Z,16.10
2023-01-29T16:30:19.165Z,13.73
2023-01-29T16:33:07.486Z,14.13
2023-01-29T16:35:55.052Z,16.93
2023-01-29T16:38:44.900Z,16.33
2023-01-29T16:41:33.198Z,17.00
2023-01-29T16:44:34.015Z,16.63
2023-01-29T16:47:33.032Z,17.20
2023-01-29T16:50:36.062Z,19.90
2023-01-29T16:53:27.306Z,12.80
2023-01-29T16:56:16.416Z,14.00
2023-01-29T16:59:05.438Z,15.53
2023-01-29T17:01:53.170Z,16.63
2023-01-29T17:04:42.146Z,15.93
2023-01-29T17:07:30.284Z,17.33
2023-01-29T17:10:18.996Z,18.07
2023-01-29T17:13:09.196Z,17.53
2023-01-29T17:16:02.723Z,16.30
2023-01-29T17:18:49.964Z,14.57
2023-01-29T17:21:37.389Z,16.53
2023-01-29T17:24:24.799Z,15.67
2023-01-29T17:27:15.031Z,15.50
2023-01-29T17:30:03.734Z,17.17
2023-01-29T17:32:51.436Z,20.50
2023-01-29T17:35:42.178Z,18.00
2023-01-29T17:38:30.005Z,17.23
2023-01-29T17:41:20.329Z,16.97
2023-01-29T17:44:07.573Z,14.97
2023-01-29T17:46:56.615Z,16.23
2023-01-29T17:49:44.384Z,13.70
2023-01-29T17:52:32.205Z,14.17
2023-01-29T17:55:19.643Z,13.37
2023-01-29T17:58:07.044Z,13.03
2023-01-29T18:00:55.377Z,12.53
2023-01-29T18:03:44.903Z,14.33
2023-01-29T18:06:33.542Z,14.03
2023-01-29T18:09:22.021Z,15.67
2023-01-29T18:12:11.519Z,13.17
2023-01-29T18:14:59.218Z,14.17
2023-01-29T18:17:48.357Z,11.80
2023-01-29T18:20:38.464Z,12.83
2023-01-29T18:23:26.050Z,14.17
2023-01-29T18:26:13.858Z,12.47
2023-01-29T18:29:01.424Z,11.77
2023-01-29T18:31:50.190Z,13.30
2023-01-29T18:34:37.430Z,11.60
2023-01-29T18:37:26.201Z,11.40
2023-01-29T18:40:17.060Z,12.93
2023-01-29T18:43:04.715Z,13.27
2023-01-29T18:45:52.166Z,14.90
2023-01-29T18:48:41.683Z,12.00
2023-01-29T18:51:30.197Z,13.90
2023-01-29T18:54:20.217Z,13.03
2023-01-29T18:57:13.945Z,12.13
2023-01-29T19:00:15.555Z,13.90
2023-01-29T19:03:03.880Z,13.67
2023-01-29T19:05:51.285Z,11.57
2023-01-29T19:08:38.862Z,10.17
2023-01-29T19:11:28.050Z,13.03
2023-01-29T19:14:15.528Z,10.20
2023-01-29T19:17:04.535Z,12.30
2023-01-29T19:19:51.869Z,10.73
2023-01-29T19:22:39.187Z,13.20
2023-01-29T19:25:26.562Z,16.90
2023-01-29T19:28:15.592Z,9.83
2023-01-29T19:31:03.291Z,9.73
2023-01-29T19:33:51.066Z,14.87
2023-01-29T19:36:38.332Z,11.20
2023-01-29T19:39:29.862Z,12.37
2023-01-29T19:42:17.760Z,11.30
2023-01-29T19:45:07.058Z,7.20
2023-01-29T19:47:55.358Z,9.83
2023-01-29T19:50:42.702Z,9.30
2023-01-29T19:53:30.701Z,9.23
2023-01-29T19:56:19.771Z,11.77
2023-01-29T19:59:07.483Z,6.97
2023-01-29T20:01:56.406Z,8.87
2023-01-29T20:04:44.159Z,11.10
2023-01-29T20:07:31.519Z,9.33
2023-01-29T20:10:19.453Z,7.93
2023-01-29T20:13:07.254Z,8.00
2023-01-29T20:15:54.710Z,6.03
2023-01-29T20:18:43.603Z,7.63
2023-01-29T20:21:31.714Z,10.20
2023-01-29T20:24:19.527Z,9.83
2023-01-29T20:27:06.862Z,9.97
2023-01-29T20:29:54.491Z,7.00
2023-01-29T20:32:41.801Z,8.77
2023-01-29T20:35:31.961Z,6.47
2023-01-29T20:38:19.445Z,7.90
2023-01-29T20:41:08.014Z,7.77
2023-01-29T20:43:55.528Z,9.50
2023-01-29T20:46:43.398Z,9.73
2023-01-29T20:49:30.666Z,8.63
2023-01-29T20:52:19.468Z,7.60
2023-01-29T20:55:08.341Z,8.13
2023-01-29T20:58:06.036Z,8.50
2023-01-29T21:00:54.356Z,7.97
2023-01-29T21:03:41.958Z,7.83
2023-01-29T21:06:30.127Z,9.70
2023-01-29T21:09:20.363Z,6.20
2023-01-29T21:12:08.508Z,8.73
2023-01-29T21:14:56.261Z,6.40
2023-01-29T21:17:43.807Z,9.57
2023-01-29T21:20:30.971Z,6.30
2023-01-29T21:23:18.274Z,8.00
2023-01-29T21:26:07.743Z,7.83
2023-01-29T21:28:55.225Z,7.87
2023-01-29T21:31:42.809Z,7.07
2023-01-29T21:34:30.351Z,6.70
2023-01-29T21:37:17.791Z,8.53
2023-01-29T21:40:05.651Z,7.53
2023-01-29T21:43:12.682Z,8.33
2023-01-29T21:46:00.988Z,8.90
2023-01-29T21:48:48.472Z,8.47
2023-01-29T21:51:36.042Z,9.67
2023-01-29T21:54:23.508Z,8.60
2023-01-29T21:57:14.828Z,8.20
2023-01-29T22:00:04.099Z,8.80
2023-01-29T22:02:52.605Z,8.73
2023-01-29T22:05:40.459Z,10.20
2023-01-29T22:08:27.735Z,7.47
2023-01-29T22:11:15.038Z,8.63
2023-01-29T22:14:02.393Z,9.17
2023-01-29T22:16:51.345Z,9.20
2023-01-29T22:19:38.695Z,9.30
2023-01-29T22:22:26.100Z,8.93
2023-01-29T22:25:13.603Z,13.07
2023-01-29T22:28:01.247Z,10.07
2023-01-29T22:30:48.526Z,8.93
2023-01-29T22:33:37.364Z,9.57
2023-01-29T22:36:24.786Z,9.33
2023-01-29T22:39:12.120Z,9.57
2023-01-29T22:41:59.460Z,10.70
2023-01-29T22:44:48.046Z,5.00
2023-01-29T22:47:35.493Z,14.93
2023-01-29T22:50:24.214Z,8.83
2023-01-29T22:53:11.820Z,7.67
2023-01-29T22:55:59.081Z,10.80
2023-01-29T22:58:46.662Z,9.63
2023-01-29T23:01:34.197Z,6.80
2023-01-29T23:04:21.938Z,8.77
2023-01-29T23:07:11.300Z,7.27
2023-01-29T23:09:58.782Z,10.57
2023-01-29T23:12:46.091Z,9.00
2023-01-29T23:15:33.366Z,10.03
2023-01-29T23:18:20.890Z,9.63
2023-01-29T23:21:08.513Z,6.90
2023-01-29T23:23:58.364Z,8.47
2023-01-29T23:27:03.513Z,8.37
2023-01-29T23:29:50.905Z,11.10
2023-01-29T23:32:38.673Z,11.57
2023-01-29T23:35:25.966Z,9.43
2023-01-29T23:38:13.183Z,7.30
2023-01-29T23:41:01.983Z,8.63
2023-01-29T23:43:49.914Z,9.00
2023-01-29T23:46:37.672Z,8.70
2023-01-29T23:49:25.342Z,9.33
2023-01-29T23:52:12.684Z,9.97
2023-01-29T23:55:00.094Z,7.37
2023-01-29T23:57:48.669Z,9.70
